createdAt,value
2018-04-29T00:00:24.214Z,14.40
2018-04-29T00:02:53.888Z,14.30
2018-04-29T00:05:23.607Z,14.30
2018-04-29T00:07:54.083Z,14.10
2018-04-29T00:10:24.023Z,14.10
2018-04-29T00:12:53.787Z,14.10
2018-04-29T00:15:24.369Z,14.00
2018-04-29T00:17:54.357Z,14.00
2018-04-29T00:20:24.451Z,14.10
2018-04-29T00:22:53.812Z,14.10
2018-04-29T00:25:23.909Z,14.20
2018-04-29T00:27:53.770Z,14.20
2018-04-29T00:30:28.988Z,14.20
2018-04-29T00:32:58.703Z,14.20
2018-04-29T00:35:28.647Z,14.10
2018-04-29T00:37:58.062Z,14.00
2018-04-29T00:40:27.223Z,13.90
2018-04-29T00:42:57.101Z,13.70
2018-04-29T00:45:27.867Z,13.60
2018-04-29T00:47:57.352Z,13.60
2018-04-29T00:50:26.832Z,13.70
2018-04-29T00:52:55.975Z,13.90
2018-04-29T00:55:25.256Z,14.00
2018-04-29T00:57:54.987Z,14.00
2018-04-29T01:00:24.162Z,14.00
2018-04-29T01:02:54.053Z,13.90
2018-04-29T01:05:23.872Z,13.70
2018-04-29T01:07:53.698Z,13.70
2018-04-29T01:10:23.431Z,13.80
2018-04-29T01:12:53.400Z,13.70
2018-04-29T01:15:22.887Z,13.70
2018-04-29T01:17:52.839Z,13.60
2018-04-29T01:20:22.452Z,13.60
2018-04-29T01:22:53.186Z,13.50
2018-04-29T01:25:22.577Z,13.50
2018-04-29T01:27:53.385Z,13.40
2018-04-29T01:30:22.745Z,13.40
2018-04-29T01:32:52.103Z,13.50
2018-04-29T01:35:21.506Z,13.60
2018-04-29T01:37:50.628Z,13.70
2018-04-29T01:40:21.192Z,13.50
2018-04-29T01:42:50.604Z,13.50
2018-04-29T01:45:21.528Z,13.60
2018-04-29T01:47:51.277Z,13.60
2018-04-29T01:50:20.915Z,13.60
2018-04-29T01:52:50.345Z,13.60
2018-04-29T01:55:20.207Z,13.50
2018-04-29T01:57:49.862Z,13.40
2018-04-29T02:00:20.013Z,13.30
2018-04-29T02:02:50.457Z,13.10
2018-04-29T02:05:19.685Z,13.10
2018-04-29T02:07:49.574Z,13.10
2018-04-29T02:10:19.015Z,13.00
2018-04-29T02:12:48.920Z,13.00
2018-04-29T02:15:18.479Z,13.00
2018-04-29T02:17:48.131Z,13.10
2018-04-29T02:20:18.070Z,13.00
2018-04-29T02:22:47.575Z,12.70
2018-04-29T02:25:17.316Z,12.60
2018-04-29T02:27:46.596Z,12.60
2018-04-29T02:30:16.261Z,12.60
2018-04-29T02:32:46.862Z,12.50
2018-04-29T02:35:16.905Z,13.00
2018-04-29T02:37:46.349Z,13.00
2018-04-29T02:40:16.115Z,13.10
2018-04-29T02:42:45.425Z,13.30
2018-04-29T02:45:14.574Z,13.30
2018-04-29T02:47:44.299Z,13.30
2018-04-29T02:50:13.615Z,13.20
2018-04-29T02:52:42.785Z,13.20
2018-04-29T02:55:12.499Z,13.20
2018-04-29T02:57:41.730Z,13.30
2018-04-29T03:00:10.929Z,13.30
2018-04-29T03:02:41.256Z,13.30
2018-04-29T03:05:10.743Z,13.30
2018-04-29T03:07:40.028Z,13.30
2018-04-29T03:10:10.112Z,13.30
2018-04-29T03:12:39.825Z,13.20
2018-04-29T03:15:09.610Z,13.20
2018-04-29T03:17:39.969Z,13.30
2018-04-29T03:20:09.845Z,13.20
2018-04-29T03:22:39.365Z,13.00
2018-04-29T03:25:10.245Z,12.90
2018-04-29T03:27:39.840Z,12.90
2018-04-29T03:30:09.570Z,12.90
2018-04-29T03:32:39.382Z,13.00
2018-04-29T03:35:08.835Z,13.00
2018-04-29T03:37:38.310Z,13.10
2018-04-29T03:40:07.943Z,13.00
2018-04-29T03:42:38.047Z,13.10
2018-04-29T03:45:07.435Z,13.20
2018-04-29T03:47:38.471Z,13.50
2018-04-29T03:50:08.379Z,13.70
2018-04-29T03:52:38.799Z,13.90
2018-04-29T03:55:08.841Z,14.00
2018-04-29T03:57:44.378Z,13.80
2018-04-29T04:00:19.302Z,13.80
2018-04-29T04:03:56.726Z,13.70
2018-04-29T04:06:27.265Z,14.30
2018-04-29T04:08:57.314Z,14.30
2018-04-29T04:11:26.669Z,14.30
2018-04-29T04:13:57.319Z,14.30
2018-04-29T04:16:26.718Z,14.20
2018-04-29T04:18:55.905Z,14.30
2018-04-29T04:21:27.604Z,14.10
2018-04-29T04:23:56.909Z,14.10
2018-04-29T04:26:26.167Z,14.00
2018-04-29T04:28:57.056Z,14.20
2018-04-29T04:31:30.510Z,14.50
2018-04-29T04:34:01.588Z,14.60
2018-04-29T04:36:32.417Z,15.00
2018-04-29T04:39:05.081Z,15.00
2018-04-29T04:41:36.925Z,15.00
2018-04-29T04:44:07.564Z,15.00
2018-04-29T04:46:37.511Z,14.90
2018-04-29T04:49:06.717Z,14.90
2018-04-29T04:51:37.301Z,15.10
2018-04-29T04:54:06.723Z,15.10
2018-04-29T04:56:37.035Z,15.10
2018-04-29T04:59:06.562Z,15.00
2018-04-29T05:01:36.213Z,15.00
2018-04-29T05:04:06.967Z,15.00
2018-04-29T05:06:36.668Z,15.00
2018-04-29T05:09:06.687Z,15.10
2018-04-29T05:11:37.100Z,15.10
2018-04-29T05:14:06.663Z,15.30
2018-04-29T05:16:36.158Z,15.30
2018-04-29T05:19:06.193Z,15.50
2018-04-29T05:21:35.664Z,15.60
2018-04-29T05:24:05.713Z,15.60
2018-04-29T05:26:35.383Z,15.60
2018-04-29T05:29:04.563Z,15.60
2018-04-29T05:31:33.868Z,15.70
2018-04-29T05:34:03.764Z,15.70
2018-04-29T05:36:33.998Z,15.80
2018-04-29T05:39:03.730Z,15.90
2018-04-29T05:41:35.076Z,15.70
2018-04-29T05:44:04.434Z,15.60
2018-04-29T05:46:35.199Z,15.70
2018-04-29T05:49:04.827Z,15.70
2018-04-29T05:51:34.163Z,15.80
2018-04-29T05:54:04.144Z,16.20
2018-04-29T05:56:33.616Z,16.20
2018-04-29T05:59:03.767Z,16.40
2018-04-29T06:01:33.232Z,16.40
2018-04-29T06:04:03.015Z,16.30
2018-04-29T06:06:32.308Z,16.10
2018-04-29T06:09:01.650Z,16.30
2018-04-29T06:11:31.692Z,17.10
2018-04-29T06:14:01.192Z,17.00
2018-04-29T06:16:30.417Z,17.10
2018-04-29T06:19:01.085Z,17.20
2018-04-29T06:21:31.070Z,17.70
2018-04-29T06:24:00.462Z,17.60
2018-04-29T06:26:31.012Z,18.60
2018-04-29T06:29:05.637Z,18.60
2018-04-29T06:31:36.888Z,20.10
2018-04-29T06:34:06.782Z,22.00
2018-04-29T06:36:37.399Z,24.00
2018-04-29T06:39:08.180Z,24.90
2018-04-29T06:41:38.005Z,24.90
2018-04-29T06:44:08.098Z,27.90
2018-04-29T06:46:37.796Z,27.90
2018-04-29T06:49:07.416Z,27.10
2018-04-29T06:51:36.818Z,29.30
2018-04-29T06:54:06.811Z,30.70
2018-04-29T06:56:38.504Z,30.90
2018-04-29T06:59:09.192Z,30.30
2018-04-29T07:01:38.684Z,30.20
2018-04-29T07:04:09.068Z,30.40
2018-04-29T07:06:41.584Z,30.20
2018-04-29T07:09:10.854Z,30.10
2018-04-29T07:11:40.569Z,30.20
2018-04-29T07:14:10.149Z,29.90
2018-04-29T07:16:39.966Z,28.80
2018-04-29T07:19:10.266Z,28.50
2018-04-29T07:21:40.035Z,28.40
2018-04-29T07:24:09.516Z,29.30
2018-04-29T07:26:39.732Z,33.30
2018-04-29T07:29:11.976Z,34.80
2018-04-29T07:31:42.637Z,34.70
2018-04-29T07:34:12.579Z,32.80
2018-04-29T07:36:43.171Z,28.60
2018-04-29T07:39:12.686Z,28.50
2018-04-29T07:41:42.791Z,27.40
2018-04-29T07:44:12.512Z,27.30
2018-04-29T07:46:41.998Z,30.00
2018-04-29T07:49:12.288Z,25.40
2018-04-29T07:51:42.660Z,25.30
2018-04-29T07:54:12.830Z,25.00
2018-04-29T07:56:43.241Z,25.10
2018-04-29T07:59:23.014Z,25.90
2018-04-29T08:01:55.639Z,27.70
2018-04-29T08:04:27.207Z,25.30
2018-04-29T08:06:56.998Z,25.30
2018-04-29T08:09:28.946Z,27.60
2018-04-29T08:12:02.699Z,28.70
2018-04-29T08:14:48.200Z,28.50
2018-04-29T08:38:20.558Z,28.70
2018-04-29T08:40:50.811Z,25.70
2018-04-29T08:43:22.146Z,26.80
2018-04-29T08:45:53.027Z,26.80
2018-04-29T08:48:23.420Z,28.70
2018-04-29T08:50:53.266Z,30.10
2018-04-29T08:53:23.566Z,29.10
2018-04-29T08:55:52.833Z,31.50
2018-04-29T08:58:23.065Z,34.60
2018-04-29T09:00:55.127Z,35.50
2018-04-29T09:03:48.151Z,35.40
2018-04-29T09:06:29.893Z,34.30
2018-04-29T09:12:47.996Z,26.70
2018-04-29T09:15:59.041Z,26.50
2018-04-29T09:19:01.335Z,26.60
2018-04-29T09:21:54.405Z,27.20
2018-04-29T09:24:30.613Z,27.50
2018-04-29T09:27:03.067Z,27.50
2018-04-29T09:29:37.105Z,29.20
2018-04-29T09:32:07.727Z,28.20
2018-04-29T09:34:38.471Z,30.90
2018-04-29T09:37:10.865Z,31.00
2018-04-29T09:39:45.701Z,29.80
2018-04-29T09:42:22.723Z,29.80
2018-04-29T09:44:55.130Z,30.10
2018-04-29T09:47:31.328Z,29.10
2018-04-29T09:50:03.897Z,27.00
2018-04-29T09:52:59.807Z,25.40
2018-04-29T09:55:34.930Z,25.40
2018-04-29T09:58:11.181Z,26.00
2018-04-29T10:00:52.559Z,25.30
2018-04-29T10:03:27.925Z,25.60
2018-04-29T10:05:58.921Z,24.30
2018-04-29T10:08:34.081Z,25.00
2018-04-29T10:13:47.177Z,24.10
2018-04-29T10:16:19.792Z,24.80
2018-04-29T10:18:50.580Z,24.90
2018-04-29T10:21:22.011Z,24.20
2018-04-29T10:23:52.216Z,24.20
2018-04-29T10:26:27.676Z,25.70
2018-04-29T10:28:58.716Z,26.60
2018-04-29T10:31:37.806Z,27.40
2018-04-29T10:34:08.547Z,27.40
2018-04-29T10:36:42.850Z,27.50
2018-04-29T10:39:23.250Z,25.80
2018-04-29T10:41:59.641Z,26.00
2018-04-29T10:44:37.749Z,27.30
2018-04-29T10:47:10.999Z,27.30
2018-04-29T10:49:54.240Z,26.30
2018-04-29T10:52:29.503Z,25.70
2018-04-29T10:55:04.032Z,25.70
2018-04-29T10:57:36.422Z,26.10
2018-04-29T11:00:13.067Z,27.40
2018-04-29T11:02:46.046Z,27.40
2018-04-29T11:05:25.070Z,27.50
2018-04-29T11:07:57.602Z,27.40
2018-04-29T11:10:28.315Z,28.00
2018-04-29T11:13:17.810Z,27.70
2018-04-29T11:15:48.228Z,27.40
2018-04-29T11:18:17.776Z,27.30
2018-04-29T11:20:48.340Z,26.30
2018-04-29T11:26:13.385Z,26.60
2018-04-29T11:28:50.063Z,26.30
2018-04-29T11:31:29.817Z,25.20
2018-04-29T11:34:04.918Z,25.30
2018-04-29T11:38:13.751Z,26.50
2018-04-29T11:40:51.042Z,26.40
2018-04-29T11:43:22.637Z,26.30
2018-04-29T11:45:54.835Z,26.20
2018-04-29T11:48:31.323Z,26.50
2018-04-29T11:51:04.218Z,25.80
2018-04-29T11:53:39.722Z,26.00
2018-04-29T11:56:11.881Z,26.20
2018-04-29T11:58:53.165Z,26.30
2018-04-29T12:01:32.206Z,26.40
2018-04-29T12:04:05.463Z,27.20
2018-04-29T12:06:37.755Z,27.20
2018-04-29T12:09:09.800Z,27.50
2018-04-29T12:11:45.504Z,27.50
2018-04-29T12:14:34.548Z,26.20
2018-04-29T12:17:09.221Z,26.20
2018-04-29T12:24:48.185Z,26.70
2018-04-29T12:27:32.583Z,26.40
2018-04-29T12:33:08.042Z,27.30
2018-04-29T12:36:06.665Z,27.40
2018-04-29T12:38:45.697Z,27.30
2018-04-29T12:41:30.444Z,27.50
2018-04-29T12:44:01.692Z,28.30
2018-04-29T12:46:31.785Z,27.50
2018-04-29T12:49:18.009Z,27.20
2018-04-29T12:51:51.221Z,27.70
2018-04-29T12:55:02.240Z,27.70
2018-04-29T13:00:31.908Z,27.40
2018-04-29T13:03:06.793Z,27.90
2018-04-29T13:05:40.157Z,28.40
2018-04-29T13:08:30.444Z,28.30
2018-04-29T13:11:36.061Z,27.90
2018-04-29T13:14:08.426Z,28.20
2018-04-29T13:16:40.521Z,28.80
2018-04-29T13:19:19.665Z,29.10
2018-04-29T13:21:52.774Z,28.70
2018-04-29T13:24:29.836Z,28.60
2018-04-29T13:27:06.911Z,28.40
2018-04-29T13:29:36.946Z,28.70
2018-04-29T13:32:06.972Z,27.10
2018-04-29T13:38:16.500Z,27.10
2018-04-29T13:40:58.023Z,27.40
2018-04-29T13:43:49.098Z,27.20
2018-04-29T13:46:21.274Z,27.50
2018-04-29T13:48:52.120Z,27.70
2018-04-29T13:56:43.902Z,27.90
2018-04-29T14:09:52.417Z,29.40
2018-04-29T14:23:14.825Z,29.40
2018-04-29T14:29:09.127Z,29.70
2018-04-29T14:31:41.980Z,29.80
2018-04-29T14:37:30.483Z,29.60
2018-04-29T14:40:51.324Z,29.70
2018-04-29T14:43:57.710Z,29.40
2018-04-29T14:50:00.956Z,29.40
2018-04-29T14:56:04.879Z,29.50
2018-04-29T14:58:48.101Z,29.10
2018-04-29T15:01:18.626Z,28.60
2018-04-29T15:07:02.706Z,28.40
2018-04-29T15:09:33.923Z,28.20
2018-04-29T15:12:12.031Z,28.40
2018-04-29T15:14:48.577Z,28.60
2018-04-29T15:17:21.301Z,28.30
2018-04-29T15:19:56.285Z,28.30
2018-04-29T15:22:26.172Z,28.10
2018-04-29T15:24:57.493Z,28.10
2018-04-29T15:27:27.482Z,27.90
2018-04-29T15:30:06.183Z,27.90
2018-04-29T15:32:57.894Z,27.70
2018-04-29T15:35:31.037Z,27.70
2018-04-29T15:38:00.912Z,27.70
2018-04-29T15:40:31.360Z,27.80
2018-04-29T15:43:01.426Z,27.70
2018-04-29T15:45:32.857Z,27.80
2018-04-29T15:48:02.383Z,27.60
2018-04-29T15:50:37.500Z,27.30
2018-04-29T15:53:11.510Z,27.40
2018-04-29T15:55:42.540Z,27.00
2018-04-29T15:58:13.014Z,27.00
2018-04-29T16:00:43.414Z,27.00
2018-04-29T16:03:22.831Z,27.10
2018-04-29T16:05:52.915Z,27.00
2018-04-29T16:08:57.341Z,26.60
2018-04-29T16:11:29.149Z,26.60
2018-04-29T16:14:07.873Z,26.60
2018-04-29T16:16:37.912Z,26.50
2018-04-29T16:19:16.140Z,26.50
2018-04-29T16:21:55.772Z,26.40
2018-04-29T16:24:43.323Z,26.50
2018-04-29T16:27:15.385Z,26.50
2018-04-29T16:29:47.936Z,26.50
2018-04-29T16:32:19.291Z,26.20
2018-04-29T16:34:48.661Z,26.20
2018-04-29T16:37:19.164Z,26.20
2018-04-29T16:39:48.404Z,26.30
2018-04-29T16:42:20.218Z,26.40
2018-04-29T16:44:51.531Z,26.40
2018-04-29T16:47:21.534Z,26.10
2018-04-29T16:49:51.670Z,25.80
2018-04-29T16:52:20.900Z,25.70
2018-04-29T16:54:50.590Z,25.80
2018-04-29T16:57:31.228Z,25.70
2018-04-29T17:03:25.194Z,25.40
2018-04-29T17:05:57.322Z,25.40
2018-04-29T17:08:28.327Z,25.40
2018-04-29T17:12:26.260Z,25.30
2018-04-29T17:15:04.120Z,25.30
2018-04-29T17:17:36.846Z,25.00
2018-04-29T17:20:07.065Z,25.00
2018-04-29T17:22:37.725Z,24.90
2018-04-29T17:25:07.717Z,24.50
2018-04-29T17:27:40.289Z,24.60
2018-04-29T17:30:10.133Z,24.60
2018-04-29T17:32:39.783Z,24.50
2018-04-29T17:35:10.214Z,24.40
2018-04-29T17:37:40.173Z,24.10
2018-04-29T17:40:11.525Z,23.90
2018-04-29T17:42:41.489Z,23.70
2018-04-29T17:45:11.106Z,23.50
2018-04-29T17:47:41.116Z,23.20
2018-04-29T17:50:12.635Z,22.90
2018-04-29T17:52:42.176Z,22.90
2018-04-29T17:55:12.273Z,22.70
2018-04-29T17:57:43.085Z,22.60
2018-04-29T18:00:13.958Z,22.50
2018-04-29T18:05:22.656Z,22.50
2018-04-29T18:07:52.928Z,22.40
2018-04-29T18:10:22.498Z,22.40
2018-04-29T18:12:52.512Z,22.30
2018-04-29T18:15:27.955Z,22.30
2018-04-29T18:18:06.819Z,22.20
2018-04-29T18:20:38.214Z,21.90
2018-04-29T18:23:07.820Z,21.80
2018-04-29T18:25:37.307Z,21.60
2018-04-29T18:28:06.780Z,21.60
2018-04-29T18:30:37.134Z,21.30
2018-04-29T18:33:06.988Z,21.30
2018-04-29T18:35:38.083Z,21.00
2018-04-29T18:38:10.285Z,21.00
2018-04-29T18:40:42.886Z,20.80
2018-04-29T18:43:12.899Z,20.90
2018-04-29T18:45:44.853Z,20.90
2018-04-29T18:48:34.139Z,20.60
2018-04-29T18:51:04.226Z,20.70
2018-04-29T18:53:33.402Z,20.70
2018-04-29T18:56:02.785Z,20.40
2018-04-29T18:58:32.792Z,20.40
2018-04-29T19:01:02.925Z,20.40
2018-04-29T19:03:32.125Z,20.40
2018-04-29T19:06:01.786Z,20.40
2018-04-29T19:08:32.043Z,20.40
2018-04-29T19:11:01.475Z,20.30
2018-04-29T19:13:30.990Z,20.20
2018-04-29T19:16:00.235Z,20.10
2018-04-29T19:18:29.554Z,20.10
2018-04-29T19:21:02.086Z,19.90
2018-04-29T19:23:33.696Z,19.60
2018-04-29T19:26:13.922Z,19.50
2018-04-29T19:28:50.490Z,19.50
2018-04-29T19:31:23.445Z,19.40
2018-04-29T19:33:53.131Z,19.50
2018-04-29T19:36:26.211Z,19.30
2018-04-29T19:38:59.497Z,19.00
2018-04-29T19:41:29.529Z,19.20
2018-04-29T19:43:59.872Z,19.30
2018-04-29T19:46:30.749Z,19.30
2018-04-29T19:49:01.381Z,19.40
2018-04-29T19:51:31.053Z,19.10
2018-04-29T19:54:01.005Z,19.00
2018-04-29T19:59:54.220Z,19.00
2018-04-29T20:02:58.050Z,19.00
2018-04-29T20:05:44.648Z,18.90
2018-04-29T20:08:15.949Z,18.50
2018-04-29T20:15:09.397Z,18.30
2018-04-29T20:17:41.401Z,18.30
2018-04-29T20:20:10.836Z,17.90
2018-04-29T20:22:40.211Z,17.90
2018-04-29T20:25:09.732Z,17.90
2018-04-29T20:27:39.109Z,17.90
2018-04-29T20:30:08.424Z,17.90
2018-04-29T20:32:40.896Z,17.80
2018-04-29T20:35:10.134Z,17.50
2018-04-29T20:37:39.977Z,17.70
2018-04-29T20:40:12.016Z,17.70
2018-04-29T20:42:41.266Z,17.60
2018-04-29T20:48:42.612Z,17.50
2018-04-29T20:51:11.908Z,17.50
2018-04-29T20:53:42.233Z,17.50
2018-04-29T20:56:11.740Z,17.50
2018-04-29T20:58:41.017Z,17.50
2018-04-29T21:01:10.164Z,17.20
2018-04-29T21:03:39.496Z,17.10
2018-04-29T21:06:08.825Z,17.00
2018-04-29T21:08:39.065Z,17.00
2018-04-29T21:11:08.173Z,17.10
2018-04-29T21:13:38.377Z,17.10
2018-04-29T21:16:08.007Z,17.00
2018-04-29T21:18:37.423Z,17.00
2018-04-29T21:21:06.597Z,17.10
2018-04-29T21:23:37.489Z,17.10
2018-04-29T21:26:10.465Z,17.10
2018-04-29T21:28:39.617Z,17.00
2018-04-29T21:31:09.554Z,16.80
2018-04-29T21:33:39.860Z,16.70
2018-04-29T21:36:10.145Z,16.70
2018-04-29T21:38:39.469Z,16.80
2018-04-29T21:41:09.069Z,16.90
2018-04-29T21:43:38.891Z,16.80
2018-04-29T21:46:08.253Z,16.90
2018-04-29T21:48:37.537Z,16.70
2018-04-29T21:51:07.298Z,16.80
2018-04-29T21:53:36.497Z,16.70
2018-04-29T21:56:05.900Z,16.70
2018-04-29T21:58:35.017Z,16.60
2018-04-29T22:01:04.076Z,16.70
2018-04-29T22:03:33.821Z,16.90
2018-04-29T22:06:03.188Z,16.80
2018-04-29T22:08:32.501Z,16.80
2018-04-29T22:11:02.658Z,16.70
2018-04-29T22:13:32.662Z,16.40
2018-04-29T22:16:03.950Z,16.20
2018-04-29T22:18:34.067Z,16.30
2018-04-29T22:21:03.808Z,16.40
2018-04-29T22:23:33.413Z,16.50
2018-04-29T22:26:03.756Z,16.50
2018-04-29T22:28:32.974Z,16.40
2018-04-29T22:31:03.913Z,16.40
2018-04-29T22:33:33.374Z,16.40
2018-04-29T22:36:03.202Z,16.30
2018-04-29T22:38:32.730Z,16.40
2018-04-29T22:41:03.144Z,15.70
2018-04-29T22:43:32.777Z,15.70
2018-04-29T22:46:03.248Z,15.70
2018-04-29T22:48:33.207Z,15.70
2018-04-29T22:51:02.396Z,15.70
2018-04-29T22:53:35.136Z,15.80
2018-04-29T22:56:04.699Z,15.90
2018-04-29T22:58:33.990Z,15.80
2018-04-29T23:01:03.482Z,15.80
2018-04-29T23:03:33.744Z,15.70
2018-04-29T23:06:02.995Z,15.70
2018-04-29T23:08:33.300Z,15.60
2018-04-29T23:11:03.952Z,15.60
2018-04-29T23:13:35.229Z,15.50
2018-04-29T23:16:04.646Z,15.50
2018-04-29T23:18:34.468Z,15.30
2018-04-29T23:21:04.217Z,15.40
2018-04-29T23:23:33.761Z,15.40
2018-04-29T23:26:04.095Z,15.30
2018-04-29T23:28:33.352Z,15.40
2018-04-29T23:31:02.984Z,15.20
2018-04-29T23:33:32.832Z,15.20
2018-04-29T23:36:02.100Z,15.20
2018-04-29T23:38:31.892Z,15.20
2018-04-29T23:41:02.437Z,15.20
2018-04-29T23:43:31.901Z,15.20
2018-04-29T23:46:06.596Z,15.20
2018-04-29T23:48:36.376Z,15.10
2018-04-29T23:51:11.862Z,15.00
2018-04-29T23:53:43.852Z,14.90
2018-04-29T23:56:13.605Z,14.80
2018-04-29T23:58:47.118Z,14.80
